createdAt,value
2022-09-15T00:00:08.326Z,11.45
2022-09-15T00:01:06.294Z,11.45
2022-09-15T00:02:06.664Z,11.44
2022-09-15T00:03:06.895Z,11.4
2022-09-15T00:04:07.936Z,11.38
2022-09-15T00:05:08.215Z,11.39
2022-09-15T00:06:09.493Z,11.38
2022-09-15T00:07:08.571Z,11.36
2022-09-15T00:08:08.888Z,11.38
2022-09-15T00:09:09.816Z,11.4
2022-09-15T00:10:10.617Z,11.42
2022-09-15T00:11:16.175Z,11.39
2022-09-15T00:12:13.926Z,11.4
2022-09-15T00:13:14.757Z,11.4
2022-09-15T00:14:14.576Z,11.39
2022-09-15T00:15:15.274Z,11.38
2022-09-15T00:16:17.306Z,11.39
2022-09-15T00:17:15.908Z,11.35
2022-09-15T00:18:16.639Z,11.36
2022-09-15T00:19:17.066Z,11.35
2022-09-15T00:20:19.204Z,11.35
2022-09-15T00:21:21.053Z,11.36
2022-09-15T00:22:18.464Z,11.35
2022-09-15T00:23:19.136Z,11.38
2022-09-15T00:24:19.536Z,11.39
2022-09-15T00:25:19.746Z,11.39
2022-09-15T00:26:22.535Z,11.39
2022-09-15T00:27:20.775Z,11.37
2022-09-15T00:28:22.783Z,11.38
2022-09-15T00:29:21.627Z,11.38
2022-09-15T00:30:22.136Z,11.38
2022-09-15T00:31:24.469Z,11.38
2022-09-15T00:32:23.025Z,11.36
2022-09-15T00:33:23.794Z,11.37
2022-09-15T00:34:23.804Z,11.36
2022-09-15T00:35:24.317Z,11.35
2022-09-15T00:36:26.267Z,11.36
2022-09-15T00:37:25.606Z,11.35
2022-09-15T00:38:25.662Z,11.36
2022-09-15T00:39:26.302Z,11.36
2022-09-15T00:40:26.660Z,11.34
2022-09-15T00:41:27.020Z,11.34
2022-09-15T00:42:27.204Z,11.31
2022-09-15T00:45:32.023Z,11.32
2022-09-15T00:46:36.069Z,11.28
2022-09-15T00:49:43.045Z,11.3
2022-09-15T00:50:43.676Z,11.31
2022-09-15T00:53:49.975Z,11.31
2022-09-15T00:55:52.613Z,11.3
2022-09-15T00:56:55.069Z,11.3
2022-09-15T00:59:59.815Z,11.29
2022-09-15T01:01:01.417Z,11.32
2022-09-15T01:03:01.957Z,11.34
2022-09-15T01:04:02.489Z,11.31
2022-09-15T01:05:06.388Z,11.31
2022-09-15T01:07:12.133Z,11.3
2022-09-15T01:08:16.442Z,11.3
2022-09-15T01:11:16.342Z,11.31
2022-09-15T01:12:17.304Z,11.33
2022-09-15T01:13:17.294Z,11.34
2022-09-15T01:14:17.459Z,11.34
2022-09-15T01:15:18.333Z,11.32
2022-09-15T01:40:24.673Z,11.35
2022-09-15T01:42:25.174Z,11.38
2022-09-15T01:43:26.832Z,11.37
2022-09-15T01:47:31.145Z,11.33
2022-09-15T01:48:34.938Z,11.34
2022-09-15T01:51:40.997Z,11.34
2022-09-15T01:53:42.425Z,11.38
2022-09-15T01:54:45.535Z,11.4
2022-09-15T01:56:45.024Z,11.39
2022-09-15T01:57:45.335Z,11.4
2022-09-15T01:58:49.013Z,11.37
2022-09-15T01:59:46.480Z,11.39
2022-09-15T02:00:54.109Z,11.38
2022-09-15T02:09:19.780Z,11.43
2022-09-15T02:11:24.430Z,11.44
2022-09-15T02:16:35.911Z,11.45
2022-09-15T02:17:42.816Z,11.43
2022-09-15T02:19:41.597Z,11.43
2022-09-15T02:22:46.635Z,11.44
2022-09-15T02:23:49.500Z,11.43
2022-09-15T02:24:57.206Z,11.43
2022-09-15T02:25:55.572Z,11.43
2022-09-15T02:26:54.440Z,11.43
2022-09-15T02:27:59.567Z,11.43
2022-09-15T02:29:02.857Z,11.43
2022-09-15T02:30:05.516Z,11.43
2022-09-15T02:31:06.326Z,11.4
2022-09-15T02:32:07.558Z,11.41
2022-09-15T02:33:08.359Z,11.42
2022-09-15T02:34:18.337Z,11.42
2022-09-15T02:35:11.859Z,11.45
2022-09-15T02:36:15.049Z,11.44
2022-09-15T02:37:13.135Z,11.43
2022-09-15T02:38:14.182Z,11.39
2022-09-15T02:39:17.248Z,11.43
2022-09-15T02:40:15.501Z,11.42
2022-09-15T02:41:15.114Z,11.42
2022-09-15T02:42:23.933Z,11.41
2022-09-15T02:43:17.804Z,11.38
2022-09-15T02:44:16.957Z,11.38
2022-09-15T02:45:17.607Z,11.38
2022-09-15T02:46:22.514Z,11.4
2022-09-15T02:47:20.176Z,11.41
2022-09-15T02:48:20.653Z,11.4
2022-09-15T02:49:21.099Z,11.4
2022-09-15T02:50:21.326Z,11.36
2022-09-15T02:51:21.834Z,11.38
2022-09-15T02:52:22.163Z,11.38
2022-09-15T02:53:22.664Z,11.42
2022-09-15T02:54:23.033Z,11.41
2022-09-15T02:55:24.426Z,11.39
2022-09-15T02:56:24.455Z,11.38
2022-09-15T02:57:25.011Z,11.38
2022-09-15T02:58:25.480Z,11.38
2022-09-15T02:59:25.673Z,11.37
2022-09-15T03:00:27.331Z,11.36
2022-09-15T03:01:30.051Z,11.4
2022-09-15T03:02:27.841Z,11.4
2022-09-15T03:03:28.486Z,11.4
2022-09-15T03:04:28.896Z,11.38
2022-09-15T03:05:30.870Z,11.36
2022-09-15T03:06:29.875Z,11.36
2022-09-15T03:07:30.358Z,11.35
2022-09-15T03:08:30.662Z,11.38
2022-09-15T03:09:31.485Z,11.37
2022-09-15T03:10:32.002Z,11.37
2022-09-15T03:11:33.858Z,11.38
2022-09-15T03:12:38.176Z,11.36
2022-09-15T03:13:36.228Z,11.36
2022-09-15T03:14:37.006Z,11.37
2022-09-15T03:15:37.681Z,11.35
2022-09-15T03:16:37.832Z,11.36
2022-09-15T03:17:39.631Z,11.35
2022-09-15T03:18:39.201Z,11.34
2022-09-15T03:19:39.030Z,11.33
2022-09-15T03:20:38.932Z,11.32
2022-09-15T03:21:39.463Z,11.33
2022-09-15T03:22:40.340Z,11.29
2022-09-15T03:23:41.076Z,11.33
2022-09-15T03:24:41.214Z,11.32
2022-09-15T03:25:41.227Z,11.33
2022-09-15T03:26:41.734Z,11.34
2022-09-15T03:27:42.690Z,11.34
2022-09-15T03:28:42.773Z,11.31
2022-09-15T03:29:43.387Z,11.34
2022-09-15T03:30:43.613Z,11.33
2022-09-15T03:31:44.332Z,11.36
2022-09-15T03:32:44.440Z,11.34
2022-09-15T03:33:44.958Z,11.3
2022-09-15T03:34:44.953Z,11.29
2022-09-15T03:35:49.336Z,11.28
2022-09-15T03:36:46.914Z,11.32
2022-09-15T03:37:47.226Z,11.3
2022-09-15T03:38:47.750Z,11.34
2022-09-15T03:39:48.464Z,11.36
2022-09-15T03:41:51.876Z,11.33
2022-09-15T03:42:52.182Z,11.34
2022-09-15T03:43:53.387Z,11.34
2022-09-15T03:44:53.823Z,11.33
2022-09-15T03:45:54.834Z,11.32
2022-09-15T03:46:54.767Z,11.33
2022-09-15T03:47:54.864Z,11.32
2022-09-15T03:48:55.387Z,11.33
2022-09-15T03:49:55.901Z,11.35
2022-09-15T03:50:56.277Z,11.35
2022-09-15T03:51:57.452Z,11.36
2022-09-15T03:52:59.415Z,11.31
2022-09-15T03:53:57.654Z,11.32
2022-09-15T03:54:58.707Z,11.33
2022-09-15T03:56:10.894Z,11.33
2022-09-15T03:57:03.834Z,11.34
2022-09-15T03:58:03.849Z,11.34
2022-09-15T03:59:06.821Z,11.34
2022-09-15T04:00:07.036Z,11.33
2022-09-15T04:01:05.080Z,11.33
2022-09-15T04:02:05.649Z,11.35
2022-09-15T04:03:06.126Z,11.33
2022-09-15T04:04:06.345Z,11.37
2022-09-15T04:05:07.792Z,11.4
2022-09-15T04:06:08.056Z,11.39
2022-09-15T04:07:07.705Z,11.4
2022-09-15T04:08:12.104Z,11.38
2022-09-15T04:09:09.745Z,11.4
2022-09-15T04:10:10.377Z,11.38
2022-09-15T04:11:12.732Z,11.38
2022-09-15T04:12:10.860Z,11.37
2022-09-15T04:13:11.419Z,11.39
2022-09-15T04:14:11.936Z,11.4
2022-09-15T04:15:12.355Z,11.41
2022-09-15T04:16:15.797Z,11.43
2022-09-15T04:17:13.286Z,11.4
2022-09-15T04:18:13.803Z,11.44
2022-09-15T04:19:14.323Z,11.43
2022-09-15T04:20:15.556Z,11.42
2022-09-15T04:21:17.511Z,11.43
2022-09-15T04:22:17.996Z,11.42
2022-09-15T04:23:15.936Z,11.45
2022-09-15T04:24:16.301Z,11.42
2022-09-15T04:25:17.129Z,11.39
2022-09-15T04:26:29.631Z,11.42
2022-09-15T04:27:22.161Z,11.44
2022-09-15T04:28:22.779Z,11.43
2022-09-15T04:29:23.303Z,11.41
2022-09-15T04:30:24.017Z,11.43
2022-09-15T04:31:24.710Z,11.44
2022-09-15T04:32:24.292Z,11.42
2022-09-15T04:33:24.853Z,11.45
2022-09-15T04:34:25.376Z,11.45
2022-09-15T04:35:25.794Z,11.46
2022-09-15T04:36:27.849Z,11.48
2022-09-15T04:37:26.607Z,11.45
2022-09-15T04:38:26.843Z,11.48
2022-09-15T04:39:27.350Z,11.5
2022-09-15T04:40:28.336Z,11.5
2022-09-15T04:41:28.981Z,11.47
2022-09-15T04:42:29.324Z,11.5
2022-09-15T04:43:30.362Z,11.52
2022-09-15T04:44:30.154Z,11.51
2022-09-15T04:45:30.772Z,11.47
2022-09-15T04:46:31.291Z,11.47
2022-09-15T04:47:31.714Z,11.49
2022-09-15T04:48:32.743Z,11.51
2022-09-15T04:49:33.257Z,11.48
2022-09-15T04:50:33.469Z,11.45
2022-09-15T04:51:34.404Z,11.47
2022-09-15T04:52:34.199Z,11.47
2022-09-15T04:53:35.125Z,11.49
2022-09-15T04:54:35.135Z,11.45
2022-09-15T04:55:35.966Z,11.48
2022-09-15T04:56:35.966Z,11.47
2022-09-15T04:57:36.838Z,11.48
2022-09-15T04:58:44.270Z,11.48
2022-09-15T04:59:41.843Z,11.45
2022-09-15T05:00:42.959Z,11.44
2022-09-15T05:01:43.522Z,11.44
2022-09-15T05:02:45.932Z,11.4
2022-09-15T05:03:44.020Z,11.42
2022-09-15T05:04:44.120Z,11.44
2022-09-15T05:05:44.418Z,11.39
2022-09-15T05:06:45.151Z,11.36
2022-09-15T05:07:45.876Z,11.36
2022-09-15T05:08:50.405Z,11.32
2022-09-15T05:09:48.034Z,11.32
2022-09-15T05:10:48.654Z,11.34
2022-09-15T05:11:49.073Z,11.38
2022-09-15T05:12:49.286Z,11.35
2022-09-15T05:13:50.103Z,11.34
2022-09-15T05:14:50.941Z,11.3
2022-09-15T05:15:51.439Z,11.29
2022-09-15T05:16:51.875Z,11.3
2022-09-15T05:17:52.084Z,11.31
2022-09-15T05:18:56.693Z,11.27
2022-09-15T05:19:54.239Z,11.32
2022-09-15T05:21:05.408Z,11.38
2022-09-15T05:21:57.944Z,11.33
2022-09-15T05:22:58.464Z,11.34
2022-09-15T05:23:58.932Z,11.37
2022-09-15T05:24:59.143Z,11.36
2022-09-15T05:26:01.963Z,11.34
2022-09-15T05:27:00.238Z,11.32
2022-09-15T05:28:00.646Z,11.34
2022-09-15T05:29:01.187Z,11.37
2022-09-15T05:30:31.912Z,11.35
2022-09-15T05:32:09.066Z,11.35
2022-09-15T05:33:09.174Z,11.4
2022-09-15T05:34:10.743Z,11.37
2022-09-15T05:35:10.111Z,11.36
2022-09-15T05:36:10.523Z,11.38
2022-09-15T05:37:11.016Z,11.42
2022-09-15T05:38:11.367Z,11.4
2022-09-15T05:39:11.675Z,11.42
2022-09-15T05:40:12.212Z,11.43
2022-09-15T05:41:15.696Z,11.52
2022-09-15T05:42:13.397Z,11.56
2022-09-15T05:43:13.956Z,11.5
2022-09-15T05:44:14.070Z,11.55
2022-09-15T05:45:14.484Z,11.42
2022-09-15T05:46:16.201Z,11.43
2022-09-15T05:47:15.417Z,11.39
2022-09-15T05:48:16.056Z,11.41
2022-09-15T05:49:16.259Z,11.45
2022-09-15T05:50:16.738Z,11.49
2022-09-15T05:51:17.077Z,11.51
2022-09-15T05:52:17.340Z,11.54
2022-09-15T05:53:18.421Z,11.56
2022-09-15T05:54:18.733Z,11.5
2022-09-15T05:55:18.849Z,11.42
2022-09-15T05:56:19.885Z,11.38
2022-09-15T05:57:19.775Z,11.39
2022-09-15T05:58:20.303Z,11.37
2022-09-15T05:59:20.612Z,11.38
2022-09-15T06:00:21.297Z,11.41
2022-09-15T06:01:24.805Z,11.38
2022-09-15T06:02:22.439Z,11.4
2022-09-15T06:03:27.486Z,11.4
2022-09-15T06:04:27.814Z,11.46
2022-09-15T06:05:28.740Z,11.49
2022-09-15T06:06:28.417Z,11.45
2022-09-15T06:07:29.129Z,11.57
2022-09-15T06:08:39.672Z,11.56
2022-09-15T06:09:30.007Z,11.6
2022-09-15T06:10:32.163Z,11.57
2022-09-15T06:11:32.361Z,11.56
2022-09-15T06:12:31.649Z,11.55
2022-09-15T06:13:32.377Z,11.58
2022-09-15T06:14:32.793Z,11.55
2022-09-15T06:15:33.516Z,11.52
2022-09-15T06:16:35.442Z,11.5
2022-09-15T06:17:34.248Z,11.54
2022-09-15T06:18:35.684Z,11.57
2022-09-15T06:19:35.179Z,11.61
2022-09-15T06:20:35.804Z,11.62
2022-09-15T06:21:35.967Z,11.65
2022-09-15T06:22:36.334Z,11.59
2022-09-15T06:23:37.060Z,11.55
2022-09-15T06:24:37.265Z,11.56
2022-09-15T06:25:37.782Z,11.6
2022-09-15T06:26:37.979Z,11.58
2022-09-15T06:27:38.824Z,11.58
2022-09-15T06:28:40.140Z,11.6
2022-09-15T06:29:39.311Z,11.55
2022-09-15T06:30:40.136Z,11.56
2022-09-15T06:31:40.209Z,11.55
2022-09-15T06:32:43.213Z,11.59
2022-09-15T06:33:47.456Z,11.62
2022-09-15T06:34:44.930Z,11.64
2022-09-15T06:35:45.318Z,11.61
2022-09-15T06:36:46.015Z,11.63
2022-09-15T06:37:46.358Z,11.64
2022-09-15T06:38:46.877Z,11.57
2022-09-15T06:39:47.140Z,11.62
2022-09-15T06:40:57.955Z,11.57
2022-09-15T06:42:02.368Z,11.58
2022-09-15T06:42:56.124Z,11.6
2022-09-15T06:43:53.656Z,11.6
2022-09-15T06:44:54.183Z,11.63
2022-09-15T06:46:02.467Z,11.68
2022-09-15T06:46:55.229Z,11.67
2022-09-15T06:48:13.640Z,11.7
2022-09-15T06:48:58.627Z,11.74
2022-09-15T06:49:59.036Z,11.71
2022-09-15T06:50:59.859Z,11.72
2022-09-15T06:51:59.764Z,11.79
2022-09-15T06:52:59.983Z,11.67
2022-09-15T06:54:00.825Z,11.71
2022-09-15T06:55:01.027Z,11.78
2022-09-15T06:57:07.067Z,11.72
2022-09-15T06:58:07.181Z,11.68
2022-09-15T06:59:07.894Z,11.75
2022-09-15T07:00:09.345Z,11.77
2022-09-15T07:01:11.192Z,11.81
2022-09-15T07:02:10.096Z,11.75
2022-09-15T07:03:12.224Z,11.72
2022-09-15T07:04:10.203Z,11.72
2022-09-15T07:05:10.156Z,11.68
2022-09-15T07:06:11.631Z,11.7
2022-09-15T07:07:11.440Z,11.7
2022-09-15T07:08:11.745Z,11.74
2022-09-15T07:09:12.788Z,11.73
2022-09-15T07:10:12.574Z,11.72
2022-09-15T07:11:13.687Z,11.7
2022-09-15T07:12:13.486Z,11.69
2022-09-15T07:13:13.836Z,11.74
2022-09-15T07:14:14.443Z,11.75
2022-09-15T07:15:14.968Z,11.76
2022-09-15T07:16:15.468Z,11.76
2022-09-15T07:17:15.811Z,11.76
2022-09-15T07:18:15.901Z,11.71
2022-09-15T07:19:16.633Z,11.73
2022-09-15T07:20:17.157Z,11.72
2022-09-15T07:21:19.533Z,11.77
2022-09-15T07:22:18.081Z,11.77
2022-09-15T07:23:19.289Z,11.77
2022-09-15T07:24:18.925Z,11.79
2022-09-15T07:25:19.139Z,11.81
2022-09-15T07:26:22.673Z,11.8
2022-09-15T07:27:20.172Z,11.81
2022-09-15T07:28:20.489Z,11.78
2022-09-15T07:29:21.001Z,11.79
2022-09-15T07:30:21.622Z,11.73
2022-09-15T07:31:24.273Z,11.78
2022-09-15T07:32:22.458Z,11.83
2022-09-15T07:33:22.874Z,11.83
2022-09-15T07:34:23.389Z,11.83
2022-09-15T07:35:23.701Z,11.87
2022-09-15T07:36:23.967Z,11.87
2022-09-15T07:37:24.975Z,11.84
2022-09-15T07:38:25.270Z,11.85
2022-09-15T07:39:25.775Z,11.92
2022-09-15T07:40:26.127Z,11.93
2022-09-15T07:41:31.317Z,11.98
2022-09-15T07:42:32.177Z,11.99
2022-09-15T07:43:33.277Z,11.99
2022-09-15T07:44:33.283Z,12.05
2022-09-15T07:45:35.404Z,12.04
2022-09-15T07:46:34.328Z,12.06
2022-09-15T07:48:35.466Z,12.15
2022-09-15T07:49:36.902Z,12.18
2022-09-15T07:50:37.012Z,12.26
2022-09-15T07:51:37.427Z,12.26
2022-09-15T07:52:38.040Z,12.29
2022-09-15T07:53:38.253Z,12.34
2022-09-15T07:54:38.985Z,12.49
2022-09-15T07:55:39.194Z,12.52
2022-09-15T07:56:39.818Z,12.61
2022-09-15T07:57:40.229Z,12.67
2022-09-15T07:58:40.538Z,12.59
2022-09-15T07:59:41.449Z,12.59
2022-09-15T08:00:41.554Z,12.68
2022-09-15T08:01:42.050Z,12.68
2022-09-15T08:02:42.524Z,12.63
2022-09-15T08:03:45.212Z,12.51
2022-09-15T08:04:43.667Z,12.51
2022-09-15T08:05:45.809Z,12.54
2022-09-15T08:06:45.001Z,12.54
2022-09-15T08:07:45.219Z,12.49
2022-09-15T08:08:45.701Z,12.54
2022-09-15T08:09:46.147Z,12.54
2022-09-15T08:10:46.562Z,12.53
2022-09-15T08:11:47.179Z,12.49
2022-09-15T08:12:47.495Z,12.47
2022-09-15T08:13:49.960Z,12.43
2022-09-15T08:14:48.235Z,12.45
2022-09-15T08:15:49.285Z,12.49
2022-09-15T08:16:49.406Z,12.58
2022-09-15T08:17:49.681Z,12.59
2022-09-15T08:18:52.951Z,12.62
2022-09-15T08:19:50.580Z,12.72
2022-09-15T08:20:51.030Z,12.68
2022-09-15T08:21:51.422Z,12.87
2022-09-15T08:22:53.196Z,13.04
2022-09-15T08:23:58.450Z,13.06
2022-09-15T08:24:56.286Z,13.08
2022-09-15T08:25:56.440Z,13.2
2022-09-15T08:26:56.986Z,13.15
2022-09-15T08:27:57.222Z,13.16
2022-09-15T08:28:58.464Z,13.03
2022-09-15T08:29:58.359Z,13.04
2022-09-15T08:32:00.939Z,13.06
2022-09-15T08:33:01.037Z,13.08
2022-09-15T08:34:01.362Z,13.08
2022-09-15T08:35:01.770Z,13.15
2022-09-15T08:36:05.668Z,13.18
2022-09-15T08:37:03.096Z,13.21
2022-09-15T08:38:03.533Z,13.17
2022-09-15T08:39:04.357Z,13.28
2022-09-15T08:40:05.245Z,13.42
2022-09-15T08:41:09.486Z,13.4
2022-09-15T08:42:09.609Z,13.45
2022-09-15T08:46:24.242Z,13.57
2022-09-15T08:53:45.921Z,13.64
2022-09-15T08:54:43.683Z,13.61
2022-09-15T08:56:47.898Z,13.64
2022-09-15T08:57:46.874Z,13.53
2022-09-15T08:58:47.492Z,13.6
2022-09-15T08:59:47.599Z,13.52
2022-09-15T09:23:04.253Z,13.86
2022-09-15T09:25:25.730Z,13.9
2022-09-15T09:26:12.146Z,13.82
2022-09-15T09:36:36.478Z,13.84
2022-09-15T09:37:37.008Z,14.01
2022-09-15T09:38:39.972Z,14.18
2022-09-15T09:39:37.828Z,14.5
2022-09-15T09:40:39.069Z,14.65
2022-09-15T09:41:40.814Z,14.61
2022-09-15T09:42:39.905Z,14.56
2022-09-15T09:43:42.301Z,14.69
2022-09-15T09:44:41.351Z,14.74
2022-09-15T09:45:41.348Z,14.63
2022-09-15T09:46:42.464Z,14.38
2022-09-15T09:47:43.235Z,14.35
2022-09-15T09:48:47.617Z,14.26
2022-09-15T09:49:48.977Z,14.18
2022-09-15T09:50:47.427Z,14.03
2022-09-15T09:52:49.294Z,14.2
2022-09-15T09:53:53.848Z,14.23
2022-09-15T09:59:05.290Z,13.96
2022-09-15T10:00:06.853Z,14
2022-09-15T10:01:17.777Z,13.95
2022-09-15T10:02:16.090Z,13.99
2022-09-15T10:03:32.046Z,14.03
2022-09-15T10:04:19.354Z,14.15
2022-09-15T10:05:19.782Z,14.17
2022-09-15T10:07:23.368Z,14.22
2022-09-15T10:08:21.152Z,14.27
2022-09-15T10:09:21.452Z,14.32
2022-09-15T10:13:28.333Z,14.38
2022-09-15T10:14:35.403Z,14.36
2022-09-15T10:15:35.203Z,14.32
2022-09-15T10:16:33.745Z,14.3
2022-09-15T10:17:46.380Z,14.19
2022-09-15T10:18:39.828Z,14.18
2022-09-15T10:21:47.121Z,14.25
2022-09-15T10:22:48.158Z,14.3
2022-09-15T10:23:48.277Z,14.3
2022-09-15T10:24:49.082Z,14.3
2022-09-15T10:25:59.171Z,14.3
2022-09-15T10:26:52.271Z,14.24
2022-09-15T10:37:28.955Z,14.83
2022-09-15T10:38:30.129Z,14.86
2022-09-15T10:45:38.162Z,15.14
2022-09-15T11:09:32.071Z,15.1
2022-09-15T11:30:23.559Z,15.41
2022-09-15T11:31:22.886Z,15.36
2022-09-15T11:32:25.768Z,15.36
2022-09-15T11:34:36.539Z,15.43
2022-09-15T11:39:50.439Z,15.31
2022-09-15T11:40:51.528Z,15.53
2022-09-15T11:41:49.800Z,15.69
2022-09-15T11:42:55.532Z,15.91
2022-09-15T11:44:51.856Z,15.76
2022-09-15T11:45:56.641Z,15.94
2022-09-15T11:48:06.115Z,15.69
2022-09-15T11:49:07.343Z,15.51
2022-09-15T11:51:03.164Z,15.61
2022-09-15T12:00:17.867Z,15.31
2022-09-15T12:01:21.464Z,15.26
2022-09-15T12:04:33.163Z,15.04
2022-09-15T12:05:36.939Z,15.15
2022-09-15T12:07:32.970Z,15.1
2022-09-15T12:09:31.917Z,15.15
2022-09-15T12:12:43.244Z,15.03
2022-09-15T12:13:42.127Z,15.04
2022-09-15T12:14:49.292Z,15.02
2022-09-15T12:15:42.838Z,15.09
2022-09-15T12:16:43.471Z,15.19
2022-09-15T12:27:16.303Z,15.44
2022-09-15T12:35:31.620Z,14.84
2022-09-15T12:38:33.582Z,14.73
2022-09-15T12:40:43.103Z,14.72
2022-09-15T12:41:50.291Z,14.72
2022-09-15T12:42:46.101Z,14.64
2022-09-15T12:43:53.434Z,14.6
2022-09-15T12:44:50.718Z,14.58
2022-09-15T12:46:00.218Z,14.53
2022-09-15T12:46:58.315Z,14.35
2022-09-15T12:51:05.912Z,14.55
2022-09-15T12:52:06.740Z,14.66
2022-09-15T12:54:06.753Z,14.74
2022-09-15T12:55:07.174Z,14.83
2022-09-15T12:58:17.322Z,15.51
2022-09-15T12:59:14.977Z,15.58
2022-09-15T13:06:35.304Z,15.43
2022-09-15T13:14:46.003Z,15.46
2022-09-15T13:17:47.762Z,15.47
2022-09-15T13:18:50.440Z,15.45
2022-09-15T13:19:53.104Z,15.44
2022-09-15T13:22:55.971Z,15.14
2022-09-15T13:23:55.918Z,15.13
2022-09-15T13:26:01.843Z,15.07
2022-09-15T13:27:02.153Z,15.09
2022-09-15T13:28:02.687Z,15.15
2022-09-15T13:29:00.967Z,15.08
2022-09-15T13:56:06.238Z,15.13
2022-09-15T13:57:04.756Z,15.11
2022-09-15T14:00:22.868Z,15.07
2022-09-15T14:01:12.374Z,15.04
2022-09-15T14:02:11.357Z,14.99
2022-09-15T14:03:17.752Z,15.03
2022-09-15T14:04:19.306Z,15.02
2022-09-15T14:05:19.820Z,14.95
2022-09-15T14:06:24.331Z,14.97
2022-09-15T14:07:25.252Z,14.95
2022-09-15T14:08:29.433Z,15
2022-09-15T14:09:32.943Z,15.08
2022-09-15T14:10:34.077Z,15.13
2022-09-15T14:11:34.294Z,15.09
2022-09-15T14:12:32.059Z,15.15
2022-09-15T14:13:32.663Z,15.08
2022-09-15T14:14:42.411Z,15.08
2022-09-15T14:15:35.037Z,15.09
2022-09-15T14:16:39.459Z,15.05
2022-09-15T14:17:45.333Z,15.04
2022-09-15T14:18:46.322Z,14.93
2022-09-15T14:19:39.357Z,14.93
2022-09-15T14:20:39.274Z,14.87
2022-09-15T14:21:47.258Z,14.81
2022-09-15T14:22:49.214Z,14.8
2022-09-15T14:23:48.488Z,14.8
2022-09-15T14:24:47.592Z,14.77
2022-09-15T14:25:49.026Z,14.82
2022-09-15T14:26:49.037Z,14.8
2022-09-15T14:27:51.930Z,14.79
2022-09-15T14:29:53.047Z,14.8
2022-09-15T14:30:51.931Z,14.76
2022-09-15T14:31:53.557Z,14.71
2022-09-15T14:32:56.547Z,14.69
2022-09-15T14:33:54.112Z,14.71
2022-09-15T14:34:58.206Z,14.7
2022-09-15T14:35:55.852Z,14.65
2022-09-15T14:38:00.978Z,14.58
2022-09-15T14:46:18.348Z,14.47
2022-09-15T14:47:25.930Z,14.43
2022-09-15T14:48:23.636Z,14.4
2022-09-15T14:49:24.296Z,14.37
2022-09-15T14:50:24.307Z,14.35
2022-09-15T14:51:26.681Z,14.37
2022-09-15T14:52:30.676Z,14.37
2022-09-15T14:53:32.963Z,14.35
2022-09-15T14:54:37.697Z,14.32
2022-09-15T14:56:42.583Z,14.3
2022-09-15T15:06:28.358Z,13.75
2022-09-15T15:08:06.206Z,13.66
2022-09-15T15:09:12.788Z,13.64
2022-09-15T15:10:14.817Z,13.57
2022-09-15T15:11:09.189Z,13.52
2022-09-15T15:14:13.954Z,13.35
2022-09-15T15:15:15.972Z,13.37
2022-09-15T15:22:27.004Z,12.85
2022-09-15T15:23:27.574Z,12.79
2022-09-15T15:24:27.504Z,12.79
2022-09-15T15:25:30.887Z,12.79
2022-09-15T15:26:37.142Z,12.73
2022-09-15T15:28:37.566Z,12.65
2022-09-15T15:30:48.327Z,12.61
2022-09-15T15:31:41.055Z,12.57
2022-09-15T15:32:43.273Z,12.56
2022-09-15T15:35:46.731Z,12.54
2022-09-15T15:36:46.790Z,12.54
2022-09-15T15:37:47.446Z,12.53
2022-09-15T15:39:51.109Z,12.52
2022-09-15T15:44:02.645Z,12.61
2022-09-15T15:46:02.361Z,12.49
2022-09-15T15:48:06.160Z,12.3
2022-09-15T15:51:10.677Z,12.4
2022-09-15T15:52:11.200Z,12.43
2022-09-15T15:53:11.615Z,12.5
2022-09-15T15:54:12.547Z,12.42
2022-09-15T15:58:25.778Z,12.46
2022-09-15T15:59:25.998Z,12.44
2022-09-15T16:01:30.504Z,12.49
2022-09-15T16:02:31.024Z,12.41
2022-09-15T16:03:31.440Z,12.37
2022-09-15T16:04:32.170Z,12.28
2022-09-15T16:05:34.228Z,12.3
2022-09-15T16:06:33.719Z,12.27
2022-09-15T16:07:33.690Z,12.3
2022-09-15T16:08:37.218Z,12.34
2022-09-15T16:09:35.487Z,12.33
2022-09-15T16:11:35.818Z,12.28
2022-09-15T16:12:36.019Z,12.26
2022-09-15T16:13:36.801Z,12.27
2022-09-15T16:14:37.144Z,12.32
2022-09-15T16:15:37.359Z,12.26
2022-09-15T16:16:38.151Z,12.24
2022-09-15T16:17:40.849Z,12.28
2022-09-15T16:18:40.561Z,12.23
2022-09-15T16:19:41.081Z,12.18
2022-09-15T16:20:42.740Z,12.21
2022-09-15T16:21:42.633Z,12.2
2022-09-15T16:22:42.846Z,12.16
2022-09-15T16:23:43.182Z,12.19
2022-09-15T16:24:43.380Z,12.2
2022-09-15T16:26:50.592Z,12.23
2022-09-15T16:27:50.868Z,12.26
2022-09-15T16:28:51.123Z,12.22
2022-09-15T16:29:52.002Z,12.2
2022-09-15T16:30:52.208Z,12.22
2022-09-15T16:31:53.142Z,12.23
2022-09-15T16:32:53.553Z,12.24
2022-09-15T16:33:53.929Z,12.19
2022-09-15T16:34:54.387Z,12.19
2022-09-15T16:36:00.538Z,12.2
2022-09-15T16:36:58.606Z,12.16
2022-09-15T16:37:58.708Z,12.16
2022-09-15T16:38:59.034Z,12.17
2022-09-15T16:39:59.890Z,12.17
2022-09-15T16:41:00.785Z,12.18
2022-09-15T16:42:00.550Z,12.17
2022-09-15T16:43:01.214Z,12.16
2022-09-15T16:44:01.815Z,12.15
2022-09-15T16:45:02.855Z,12.14
2022-09-15T16:46:02.251Z,12.07
2022-09-15T16:47:02.614Z,11.98
2022-09-15T16:48:04.101Z,11.97
2022-09-15T16:49:03.696Z,11.99
2022-09-15T16:50:04.728Z,12.01
2022-09-15T16:51:27.407Z,12
2022-09-15T16:52:11.602Z,12.05
2022-09-15T16:56:16.133Z,12.04
2022-09-15T16:57:16.657Z,12.08
2022-09-15T16:58:18.803Z,12.03
2022-09-15T16:59:17.591Z,12
2022-09-15T17:00:18.716Z,11.98
2022-09-15T17:01:20.841Z,11.93
2022-09-15T17:02:19.125Z,11.94
2022-09-15T17:03:21.308Z,11.94
2022-09-15T17:04:19.772Z,11.95
2022-09-15T17:06:23.780Z,11.96
2022-09-15T17:07:23.998Z,11.93
2022-09-15T17:08:29.731Z,11.96
2022-09-15T17:09:27.509Z,11.94
2022-09-15T17:10:27.793Z,11.94
2022-09-15T17:11:29.853Z,11.95
2022-09-15T17:12:28.829Z,11.91
2022-09-15T17:13:32.041Z,11.89
2022-09-15T17:14:29.773Z,11.84
2022-09-15T17:15:34.490Z,11.82
2022-09-15T17:16:32.540Z,11.83
2022-09-15T17:17:32.671Z,11.84
2022-09-15T17:18:33.399Z,11.83
2022-09-15T17:19:33.488Z,11.84
2022-09-15T17:20:39.199Z,11.83
2022-09-15T17:21:37.284Z,11.79
2022-09-15T17:22:37.594Z,11.78
2022-09-15T17:23:40.235Z,11.76
2022-09-15T17:24:38.532Z,11.74
2022-09-15T17:25:40.180Z,11.71
2022-09-15T17:26:39.261Z,11.68
2022-09-15T17:27:39.880Z,11.66
2022-09-15T17:28:40.605Z,11.59
2022-09-15T17:29:40.724Z,11.57
2022-09-15T17:30:41.282Z,11.59
2022-09-15T17:31:41.507Z,11.58
2022-09-15T17:32:41.963Z,11.54
2022-09-15T17:33:42.790Z,11.51
2022-09-15T17:34:43.919Z,11.52
2022-09-15T17:35:43.354Z,11.47
2022-09-15T17:36:43.735Z,11.45
2022-09-15T17:37:44.768Z,11.44
2022-09-15T17:38:44.891Z,11.45
2022-09-15T17:39:44.984Z,11.49
2022-09-15T17:40:45.395Z,11.52
2022-09-15T17:41:46.424Z,11.53
2022-09-15T17:42:47.770Z,11.54
2022-09-15T17:43:47.578Z,11.54
2022-09-15T17:44:47.171Z,11.54
2022-09-15T17:45:48.700Z,11.51
2022-09-15T17:46:48.166Z,11.48
2022-09-15T17:47:48.822Z,11.46
2022-09-15T17:48:49.037Z,11.45
2022-09-15T17:49:49.460Z,11.44
2022-09-15T17:50:50.278Z,11.48
2022-09-15T17:51:50.596Z,11.5
2022-09-15T17:52:51.125Z,11.47
2022-09-15T17:53:51.436Z,11.5
2022-09-15T17:54:51.841Z,11.51
2022-09-15T17:55:52.552Z,11.51
2022-09-15T17:56:52.666Z,11.51
2022-09-15T17:57:53.902Z,11.51
2022-09-15T17:58:53.411Z,11.49
2022-09-15T17:59:53.816Z,11.46
2022-09-15T18:00:54.518Z,11.49
2022-09-15T18:01:54.927Z,11.47
2022-09-15T18:02:57.611Z,11.47
2022-09-15T18:03:55.597Z,11.47
2022-09-15T18:04:56.008Z,11.47
2022-09-15T18:05:58.993Z,11.48
2022-09-15T18:06:56.838Z,11.45
2022-09-15T18:07:59.505Z,11.44
2022-09-15T18:08:57.633Z,11.43
2022-09-15T18:09:58.179Z,11.45
2022-09-15T18:10:59.533Z,11.45
2022-09-15T18:11:59.439Z,11.42
2022-09-15T18:13:00.332Z,11.41
2022-09-15T18:14:02.918Z,11.42
2022-09-15T18:15:00.672Z,11.42
2022-09-15T18:16:11.357Z,11.4
2022-09-15T18:17:04.338Z,11.4
2022-09-15T18:18:05.093Z,11.4
2022-09-15T18:19:05.002Z,11.42
2022-09-15T18:20:05.833Z,11.38
2022-09-15T18:22:10.850Z,11.38
2022-09-15T18:23:18.948Z,11.37
2022-09-15T18:24:14.871Z,11.38
2022-09-15T18:26:13.750Z,11.32
2022-09-15T18:27:14.457Z,11.3
2022-09-15T18:28:15.198Z,11.3
2022-09-15T18:29:15.216Z,11.33
2022-09-15T18:30:15.938Z,11.31
2022-09-15T18:31:15.892Z,11.31
2022-09-15T18:32:16.555Z,11.29
2022-09-15T18:34:20.054Z,11.25
2022-09-15T18:35:21.771Z,11.26